Terminal Aerodrome Forecast
Issued by NWS Tallahassee, FL

Current Version | Previous Version | Text Only | Print | Product List | Glossary On
Versions: 1 2 3 4 5 6 7 8 9 10 11 12 13 14 15 16 17
000
FTUS42 KTAE 191134
TAFTLH
TAF
KTLH 191134Z 1912/2012 00000KT 1/4SM FG OVC002
     FM191600 18005KT P6SM BKN035
     FM200300 16005KT 3SM BR BKN007
     FM200600 18004KT 2SM TSRA BR OVC025CB=

USA.gov is the U.S. government's official web portal to all federal, state and local government web resources and services.